createdAt,value
2019-03-01T00:01:51.891Z,34.13
2019-03-01T00:05:19.496Z,31.57
2019-03-01T00:08:25.772Z,31.90
2019-03-01T00:11:41.339Z,36.20
2019-03-01T00:15:16.501Z,34.77
2019-03-01T00:18:26.182Z,37.07
2019-03-01T00:21:56.774Z,36.10
2019-03-01T00:25:15.293Z,35.13
2019-03-01T00:28:30.852Z,35.70
2019-03-01T00:31:49.723Z,36.53
2019-03-01T00:34:56.491Z,38.23
2019-03-01T00:38:18.341Z,38.40
2019-03-01T00:41:25.111Z,37.33
2019-03-01T00:44:47.312Z,39.97
2019-03-01T00:47:51.013Z,40.53
2019-03-01T00:50:54.852Z,41.17
2019-03-01T00:53:58.709Z,41.80
2019-03-01T00:57:02.527Z,40.83
2019-03-01T01:00:14.577Z,42.23
2019-03-01T01:03:18.427Z,41.40
2019-03-01T01:06:22.275Z,42.57
2019-03-01T01:09:26.088Z,42.53
2019-03-01T01:12:29.996Z,43.07
2019-03-01T01:15:33.822Z,40.37
2019-03-01T01:18:37.694Z,41.03
2019-03-01T01:21:41.553Z,41.27
2019-03-01T01:24:45.369Z,40.90
2019-03-01T01:27:49.215Z,42.87
2019-03-01T01:30:53.094Z,41.63
2019-03-01T01:33:56.963Z,39.50
2019-03-01T01:37:00.801Z,37.43
2019-03-01T01:40:06.528Z,35.70
2019-03-01T01:43:10.352Z,33.30
2019-03-01T01:46:14.205Z,30.83
2019-03-01T01:49:19.056Z,31.63
2019-03-01T01:52:23.087Z,32.83
2019-03-01T01:55:26.982Z,32.03
2019-03-01T01:58:30.804Z,32.70
2019-03-01T02:01:34.638Z,31.77
2019-03-01T02:04:38.494Z,31.37
2019-03-01T02:07:42.312Z,32.57
2019-03-01T02:10:46.154Z,33.73
2019-03-01T02:13:50.050Z,33.40
2019-03-01T02:16:53.915Z,32.30
2019-03-01T02:19:57.726Z,33.43
2019-03-01T02:23:01.584Z,34.57
2019-03-01T02:26:05.427Z,33.40
2019-03-01T02:29:09.281Z,33.30
2019-03-01T02:32:13.122Z,32.43
2019-03-01T02:35:18.162Z,34.30
2019-03-01T02:38:22.005Z,35.90
2019-03-01T02:41:25.837Z,34.00
2019-03-01T02:44:29.711Z,34.23
2019-03-01T02:47:33.533Z,34.33
2019-03-01T02:50:37.388Z,34.67
2019-03-01T02:53:41.272Z,31.67
2019-03-01T02:56:45.098Z,34.73
2019-03-01T02:59:48.952Z,36.27
2019-03-01T03:02:52.788Z,35.73
2019-03-01T03:06:04.005Z,34.80
2019-03-01T03:09:08.732Z,34.57
2019-03-01T03:12:12.581Z,34.17
2019-03-01T03:15:18.436Z,33.80
2019-03-01T03:18:22.279Z,34.87
2019-03-01T03:21:26.135Z,35.37
2019-03-01T03:24:29.973Z,37.33
2019-03-01T03:27:33.823Z,36.77
2019-03-01T03:30:37.652Z,36.40
2019-03-01T03:33:41.474Z,36.90
2019-03-01T03:36:45.327Z,36.03
2019-03-01T03:39:49.156Z,38.50
2019-03-01T03:42:53.004Z,39.23
2019-03-01T03:45:56.830Z,40.70
2019-03-01T03:49:00.715Z,43.10
2019-03-01T03:52:04.551Z,41.23
2019-03-01T03:55:13.683Z,42.33
2019-03-01T03:58:17.562Z,39.57
2019-03-01T04:01:21.403Z,41.13
2019-03-01T04:04:25.272Z,40.17
2019-03-01T04:07:29.102Z,38.90
2019-03-01T04:10:32.973Z,38.17
2019-03-01T04:13:36.822Z,35.13
2019-03-01T04:16:40.656Z,36.50
2019-03-01T04:19:44.502Z,38.63
2019-03-01T04:22:48.379Z,41.20
2019-03-01T04:25:52.236Z,41.67
2019-03-01T04:28:56.103Z,41.40
2019-03-01T04:31:59.952Z,43.83
2019-03-01T04:35:04.313Z,48.40
2019-03-01T04:38:08.183Z,43.10
2019-03-01T04:41:12.029Z,41.63
2019-03-01T04:44:15.892Z,40.70
2019-03-01T04:47:19.722Z,41.57
2019-03-01T04:50:23.576Z,39.93
2019-03-01T04:53:27.402Z,41.73
2019-03-01T04:56:31.268Z,40.43
2019-03-01T04:59:35.112Z,43.20
2019-03-01T05:02:38.994Z,42.00
2019-03-01T05:05:42.876Z,41.63
2019-03-01T05:08:46.694Z,42.23
2019-03-01T05:11:50.565Z,46.60
2019-03-01T05:14:54.401Z,44.13
2019-03-01T05:17:58.244Z,45.57
2019-03-01T05:21:02.073Z,46.17
2019-03-01T05:24:05.960Z,46.00
2019-03-01T05:27:09.802Z,47.93
2019-03-01T05:30:15.932Z,48.53
2019-03-01T05:33:19.814Z,49.80
2019-03-01T05:36:23.651Z,48.73
2019-03-01T05:39:27.492Z,44.00
2019-03-01T05:42:31.383Z,45.07
2019-03-01T05:45:35.272Z,47.13
2019-03-01T05:48:39.096Z,46.43
2019-03-01T05:51:42.957Z,46.70
2019-03-01T05:54:46.812Z,45.83
2019-03-01T05:58:19.061Z,44.17
2019-03-01T06:01:25.923Z,44.43
2019-03-01T06:04:32.686Z,43.83
2019-03-01T06:07:57.315Z,43.87
2019-03-01T06:11:02.548Z,44.63
2019-03-01T06:14:25.761Z,41.87
2019-03-01T06:17:54.755Z,41.80
2019-03-01T06:21:36.531Z,44.63
2019-03-01T06:25:02.779Z,44.67
2019-03-01T06:28:23.829Z,45.57
2019-03-01T06:31:48.443Z,45.47
2019-03-01T06:35:01.236Z,46.60
2019-03-01T06:38:30.973Z,47.03
2019-03-01T06:42:06.552Z,46.03
2019-03-01T06:45:25.012Z,44.17
2019-03-01T06:48:33.391Z,40.37
2019-03-01T06:51:37.218Z,43.50
2019-03-01T06:54:41.107Z,43.53
2019-03-01T06:57:44.859Z,43.43
2019-03-01T07:00:50.668Z,41.20
2019-03-01T07:03:54.897Z,39.53
2019-03-01T07:06:58.737Z,38.43
2019-03-01T07:10:02.601Z,37.63
2019-03-01T07:13:06.544Z,39.03
2019-03-01T07:16:10.657Z,38.37
2019-03-01T07:19:14.463Z,37.80
2019-03-01T07:22:18.364Z,37.63
2019-03-01T07:25:22.320Z,40.47
2019-03-01T07:28:26.244Z,36.47
2019-03-01T07:31:30.062Z,36.20
2019-03-01T07:34:33.969Z,33.87
2019-03-01T07:37:37.796Z,32.00
2019-03-01T07:40:41.978Z,33.97
2019-03-01T07:43:45.822Z,32.27
2019-03-01T07:46:52.858Z,32.70
2019-03-01T07:49:55.189Z,32.87
2019-03-01T07:53:00.226Z,33.20
2019-03-01T07:56:05.273Z,36.27
2019-03-01T07:59:09.478Z,35.20
2019-03-01T08:02:13.366Z,33.53
2019-03-01T08:05:17.162Z,38.30
2019-03-01T08:08:20.994Z,36.73
2019-03-01T08:11:24.844Z,37.90
2019-03-01T08:14:31.539Z,39.77
2019-03-01T08:17:34.182Z,38.67
2019-03-01T08:20:38.014Z,39.77
2019-03-01T08:23:41.865Z,39.07
2019-03-01T08:26:45.785Z,39.80
2019-03-01T08:29:49.610Z,41.47
2019-03-01T08:32:53.464Z,39.47
2019-03-01T08:35:57.297Z,40.47
2019-03-01T08:39:04.933Z,39.77
2019-03-01T08:42:06.639Z,41.13
2019-03-01T08:45:13.104Z,39.93
2019-03-01T08:48:16.972Z,39.83
2019-03-01T08:51:22.627Z,39.57
2019-03-01T08:54:27.394Z,37.80
2019-03-01T08:57:31.442Z,40.93
2019-03-01T09:00:38.502Z,36.87
2019-03-01T09:03:47.986Z,39.30
2019-03-01T09:06:51.811Z,44.70
2019-03-01T09:09:57.296Z,37.87
2019-03-01T09:13:01.192Z,34.63
2019-03-01T09:16:05.102Z,35.30
2019-03-01T09:19:08.960Z,35.53
2019-03-01T09:22:12.782Z,38.07
2019-03-01T09:25:16.681Z,35.60
2019-03-01T09:28:20.550Z,35.40
2019-03-01T09:31:24.393Z,39.30
2019-03-01T09:34:31.871Z,36.13
2019-03-01T09:37:34.002Z,38.07
2019-03-01T09:40:37.884Z,39.43
2019-03-01T09:43:42.454Z,36.13
2019-03-01T09:46:46.289Z,37.80
2019-03-01T09:49:50.115Z,38.00
2019-03-01T09:52:55.558Z,35.83
2019-03-01T09:56:00.156Z,38.27
2019-03-01T09:59:04.272Z,37.83
2019-03-01T10:02:08.152Z,38.83
2019-03-01T10:05:13.705Z,36.93
2019-03-01T10:08:17.588Z,41.90
2019-03-01T10:11:21.423Z,38.87
2019-03-01T10:14:25.259Z,41.87
2019-03-01T10:17:29.098Z,38.37
2019-03-01T10:20:32.935Z,38.43
2019-03-01T10:23:36.842Z,36.43
2019-03-01T10:26:40.690Z,37.60
2019-03-01T10:29:44.553Z,45.67
2019-03-01T10:32:48.413Z,50.00
2019-03-01T10:35:52.294Z,37.13
2019-03-01T10:38:56.121Z,41.43
2019-03-01T10:41:59.978Z,37.77
2019-03-01T10:45:04.875Z,40.33
2019-03-01T10:48:08.679Z,42.70
2019-03-01T10:51:12.573Z,54.23
2019-03-01T10:54:16.406Z,39.30
2019-03-01T10:57:21.661Z,44.00
2019-03-01T11:00:30.775Z,43.97
2019-03-01T11:03:34.635Z,85.10
2019-03-01T11:06:38.472Z,56.03
2019-03-01T11:09:42.319Z,59.53
2019-03-01T11:12:46.208Z,56.33
2019-03-01T11:15:50.067Z,66.67
2019-03-01T11:18:53.882Z,39.23
2019-03-01T11:21:57.707Z,62.67
2019-03-01T11:25:01.552Z,37.30
2019-03-01T11:28:05.466Z,45.07
2019-03-01T11:31:09.304Z,53.87
2019-03-01T11:34:13.169Z,45.87
2019-03-01T11:37:17.026Z,41.90
2019-03-01T11:40:31.848Z,42.17
2019-03-01T11:43:35.703Z,41.53
2019-03-01T11:46:39.608Z,38.53
2019-03-01T11:49:43.417Z,41.10
2019-03-01T11:52:47.464Z,38.70
2019-03-01T11:55:51.345Z,45.97
2019-03-01T11:58:55.171Z,39.60
2019-03-01T12:01:59.017Z,39.77
2019-03-01T12:05:02.846Z,41.00
2019-03-01T12:08:06.732Z,34.13
2019-03-01T12:11:10.573Z,45.73
2019-03-01T12:14:14.437Z,48.03
2019-03-01T12:17:18.282Z,41.83
2019-03-01T12:20:26.719Z,43.03
2019-03-01T12:23:30.568Z,45.23
2019-03-01T12:26:35.310Z,49.23
2019-03-01T12:29:39.152Z,43.90
2019-03-01T12:32:42.987Z,42.83
2019-03-01T12:35:46.861Z,44.43
2019-03-01T12:38:50.670Z,45.50
2019-03-01T12:41:54.564Z,44.37
2019-03-01T12:44:58.476Z,44.43
2019-03-01T12:48:02.316Z,44.00
2019-03-01T12:51:06.168Z,52.70
2019-03-01T12:54:09.993Z,47.30
2019-03-01T12:57:14.376Z,46.30
2019-03-01T13:00:20.837Z,45.57
2019-03-01T13:03:24.692Z,50.17
2019-03-01T13:06:28.534Z,50.67
2019-03-01T13:09:32.402Z,53.17
2019-03-01T13:12:36.295Z,53.20
2019-03-01T13:15:40.336Z,50.93
2019-03-01T13:18:47.762Z,49.93
2019-03-01T13:21:50.116Z,50.43
2019-03-01T13:24:54.228Z,52.97
2019-03-01T13:27:58.010Z,52.40
2019-03-01T13:31:01.864Z,50.70
2019-03-01T13:34:05.672Z,49.40
2019-03-01T13:37:14.721Z,50.50
2019-03-01T13:40:20.956Z,49.80
2019-03-01T13:43:27.428Z,51.63
2019-03-01T13:46:33.392Z,52.83
2019-03-01T13:49:36.498Z,52.83
2019-03-01T13:52:41.758Z,53.47
2019-03-01T13:55:45.642Z,55.70
2019-03-01T13:58:49.475Z,55.50
2019-03-01T14:01:53.772Z,54.60
2019-03-01T14:04:57.836Z,59.27
2019-03-01T14:08:08.671Z,60.80
2019-03-01T14:11:07.445Z,54.27
2019-03-01T14:14:11.273Z,52.87
2019-03-01T14:17:15.132Z,55.63
2019-03-01T14:20:21.314Z,54.37
2019-03-01T14:23:25.945Z,58.77
2019-03-01T14:26:29.942Z,56.13
2019-03-01T14:29:34.788Z,58.80
2019-03-01T14:32:39.212Z,60.40
2019-03-01T14:35:43.018Z,58.60
2019-03-01T14:38:46.887Z,58.60
2019-03-01T14:41:50.743Z,59.80
2019-03-01T14:44:54.575Z,61.30
2019-03-01T14:47:58.431Z,61.70
2019-03-01T14:51:02.442Z,65.43
2019-03-01T14:54:07.111Z,66.03
2019-03-01T14:57:13.819Z,65.30
2019-03-01T15:00:20.721Z,62.73
2019-03-01T15:03:33.039Z,58.60
2019-03-01T15:06:37.291Z,59.83
2019-03-01T15:09:41.150Z,57.53
2019-03-01T15:12:45.020Z,53.33
2019-03-01T15:15:48.862Z,54.80
2019-03-01T15:18:52.736Z,54.53
2019-03-01T15:21:56.592Z,57.87
2019-03-01T15:25:00.923Z,57.93
2019-03-01T15:28:04.771Z,56.13
2019-03-01T15:31:10.023Z,53.50
2019-03-01T15:34:13.877Z,56.77
2019-03-01T15:37:17.732Z,57.30
2019-03-01T15:40:21.573Z,59.33
2019-03-01T15:43:26.476Z,57.07
2019-03-01T15:46:31.075Z,62.30
2019-03-01T15:49:34.951Z,59.77
2019-03-01T15:52:38.785Z,60.10
2019-03-01T15:55:42.697Z,62.93
2019-03-01T15:58:46.809Z,56.93
2019-03-01T16:01:51.022Z,60.33
2019-03-01T16:04:55.102Z,61.10
2019-03-01T16:07:58.962Z,61.97
2019-03-01T16:11:02.778Z,64.47
2019-03-01T16:14:06.634Z,63.60
2019-03-01T16:17:10.541Z,60.90
2019-03-01T16:20:21.050Z,63.47
2019-03-01T16:23:27.516Z,63.37
2019-03-01T16:26:33.581Z,61.57
2019-03-01T16:29:38.781Z,64.33
2019-03-01T16:32:49.528Z,62.83
2019-03-01T16:35:48.406Z,63.00
2019-03-01T16:38:53.024Z,64.87
2019-03-01T16:41:56.846Z,63.30
2019-03-01T16:45:00.744Z,61.00
2019-03-01T16:48:04.850Z,62.67
2019-03-01T16:51:10.142Z,62.13
2019-03-01T16:54:16.363Z,59.43
2019-03-01T16:57:19.648Z,65.03
2019-03-01T17:00:24.603Z,67.80
2019-03-01T17:03:28.443Z,61.97
2019-03-01T17:06:32.324Z,61.57
2019-03-01T17:09:36.223Z,65.87
2019-03-01T17:12:40.054Z,88.40
2019-03-01T17:15:45.518Z,77.40
2019-03-01T17:18:49.617Z,75.17
2019-03-01T17:21:57.042Z,67.33
2019-03-01T17:25:00.940Z,69.83
2019-03-01T17:28:04.782Z,68.73
2019-03-01T17:31:08.802Z,67.83
2019-03-01T17:34:12.658Z,67.37
2019-03-01T17:37:16.588Z,66.73
2019-03-01T17:40:20.639Z,66.37
2019-03-01T17:43:25.945Z,70.93
2019-03-01T17:46:32.987Z,74.60
2019-03-01T17:49:35.503Z,63.87
2019-03-01T17:52:39.362Z,67.97
2019-03-01T17:55:43.212Z,67.30
2019-03-01T17:58:47.048Z,64.27
2019-03-01T18:01:50.913Z,68.47
2019-03-01T18:04:54.782Z,75.73
2019-03-01T18:07:59.813Z,76.33
2019-03-01T18:11:05.445Z,77.87
2019-03-01T18:14:09.583Z,77.43
2019-03-01T18:17:13.466Z,73.50
2019-03-01T18:20:17.332Z,75.13
2019-03-01T18:23:21.184Z,80.13
2019-03-01T18:26:25.052Z,75.97
2019-03-01T18:29:28.901Z,72.67
2019-03-01T18:32:32.763Z,71.47
2019-03-01T18:35:36.727Z,59.23
2019-03-01T18:38:40.574Z,39.43
2019-03-01T18:41:44.421Z,33.13
2019-03-01T18:44:48.236Z,34.50
2019-03-01T18:47:52.068Z,33.40
2019-03-01T18:50:55.926Z,33.77
2019-03-01T18:54:00.634Z,28.07
2019-03-01T18:57:05.403Z,28.53
2019-03-01T19:00:26.396Z,28.57
2019-03-01T19:03:30.271Z,30.00
2019-03-01T19:06:34.180Z,29.23
2019-03-01T19:09:38.268Z,28.67
2019-03-01T19:12:44.944Z,27.33
2019-03-01T19:15:53.647Z,29.33
2019-03-01T19:18:54.602Z,32.13
2019-03-01T19:21:58.642Z,29.10
2019-03-01T19:25:02.531Z,27.60
2019-03-01T19:28:06.511Z,28.70
2019-03-01T19:31:10.392Z,29.20
2019-03-01T19:34:16.987Z,28.80
2019-03-01T19:37:19.916Z,29.93
2019-03-01T19:40:24.439Z,31.20
2019-03-01T19:43:28.364Z,40.60
2019-03-01T19:46:32.407Z,38.47
2019-03-01T19:49:36.282Z,37.90
2019-03-01T19:52:43.522Z,34.30
2019-03-01T19:55:47.252Z,29.47
2019-03-01T19:58:51.947Z,33.07
2019-03-01T20:01:56.312Z,29.77
2019-03-01T20:05:00.380Z,28.90
2019-03-01T20:08:04.394Z,26.80
2019-03-01T20:11:09.732Z,26.77
2019-03-01T20:14:13.639Z,29.53
2019-03-01T20:17:17.590Z,27.17
2019-03-01T20:20:23.623Z,31.17
2019-03-01T20:23:29.547Z,30.43
2019-03-01T20:26:33.466Z,30.93
2019-03-01T20:33:23.401Z,30.10
2019-03-01T20:36:25.594Z,35.67
2019-03-01T20:39:29.731Z,34.80
2019-03-01T20:42:33.599Z,33.03
2019-03-01T20:45:39.182Z,29.73
2019-03-01T20:48:43.002Z,29.60
2019-03-01T20:51:46.840Z,30.13
2019-03-01T20:54:50.723Z,30.07
2019-03-01T20:57:54.668Z,30.07
2019-03-01T21:00:58.815Z,31.03
2019-03-01T21:04:04.855Z,29.10
2019-03-01T21:07:12.483Z,31.00
2019-03-01T21:10:22.652Z,29.37
2019-03-01T21:13:26.485Z,28.20
2019-03-01T21:16:30.343Z,28.47
2019-03-01T21:19:34.252Z,26.87
2019-03-01T21:22:39.826Z,29.13
2019-03-01T21:25:43.693Z,29.53
2019-03-01T21:28:47.532Z,32.90
2019-03-01T21:31:51.392Z,33.23
2019-03-01T21:34:55.246Z,33.57
2019-03-01T21:37:59.196Z,30.43
2019-03-01T21:41:06.336Z,28.33
2019-03-01T21:44:10.591Z,27.87
2019-03-01T21:47:14.677Z,28.93
2019-03-01T21:50:18.592Z,28.67
2019-03-01T21:53:22.476Z,29.10
2019-03-01T21:56:26.453Z,32.70
2019-03-01T21:59:30.278Z,40.20
2019-03-01T22:02:34.107Z,44.00
2019-03-01T22:05:37.954Z,35.80
2019-03-01T22:08:44.843Z,34.53
2019-03-01T22:11:49.190Z,31.27
2019-03-01T22:14:52.794Z,31.93
2019-03-01T22:17:56.872Z,29.30
2019-03-01T22:21:00.702Z,29.47
2019-03-01T22:24:04.551Z,29.00
2019-03-01T22:27:08.388Z,28.70
2019-03-01T22:30:15.037Z,28.17
2019-03-01T22:33:20.811Z,26.90
2019-03-01T22:36:24.358Z,30.00
2019-03-01T22:39:28.205Z,30.47
2019-03-01T22:42:32.043Z,29.37
2019-03-01T22:45:36.320Z,28.60
2019-03-01T22:48:46.866Z,29.17
2019-03-01T22:51:45.641Z,31.00
2019-03-01T22:54:49.496Z,27.80
2019-03-01T22:57:53.334Z,30.33
2019-03-01T23:01:00.855Z,27.80
2019-03-01T23:04:04.842Z,29.20
2019-03-01T23:07:08.655Z,27.53
2019-03-01T23:10:12.512Z,27.00
2019-03-01T23:13:17.000Z,26.43
2019-03-01T23:16:21.851Z,29.07
2019-03-01T23:19:25.672Z,28.90
2019-03-01T23:22:29.548Z,30.77
2019-03-01T23:25:33.388Z,30.97
2019-03-01T23:28:37.194Z,26.57
2019-03-01T23:31:41.056Z,29.80
2019-03-01T23:34:44.872Z,37.47
2019-03-01T23:37:48.715Z,44.70
2019-03-01T23:40:52.626Z,38.37
2019-03-01T23:43:56.532Z,35.30
2019-03-01T23:47:02.831Z,35.93
2019-03-01T23:50:07.881Z,40.30
2019-03-01T23:53:11.744Z,35.37
2019-03-01T23:56:15.593Z,33.53
2019-03-01T23:59:19.429Z,31.07
